sensor_id;sensor_type;location;lat;lon;timestamp;pressure;altitude;pressure_sealevel;temperature;humidity
2397;BME280;1209;48.410;9.054;2022-07-11T00:01:42;96904.97;;;14.44;100.00
2397;BME280;1209;48.410;9.054;2022-07-11T00:04:07;96906.38;;;14.32;100.00
2397;BME280;1209;48.410;9.054;2022-07-11T00:06:33;96907.63;;;13.77;100.00
2397;BME280;1209;48.410;9.054;2022-07-11T00:08:58;96907.34;;;13.86;100.00
2397;BME280;1209;48.410;9.054;2022-07-11T00:11:24;96899.22;;;14.11;100.00
2397;BME280;1209;48.410;9.054;2022-07-11T00:13:49;96904.91;;;14.14;100.00
2397;BME280;1209;48.410;9.054;2022-07-11T00:16:15;96903.75;;;14.17;100.00
2397;BME280;1209;48.410;9.054;2022-07-11T00:18:41;96904.09;;;14.14;100.00
2397;BME280;1209;48.410;9.054;2022-07-11T00:21:06;96889.78;;;14.02;100.00
2397;BME280;1209;48.410;9.054;2022-07-11T00:23:32;96896.50;;;14.04;100.00
2397;BME280;1209;48.410;9.054;2022-07-11T00:25:57;96900.22;;;14.10;100.00
2397;BME280;1209;48.410;9.054;2022-07-11T00:28:22;96897.50;;;14.03;100.00
2397;BME280;1209;48.410;9.054;2022-07-11T00:30:48;96889.88;;;14.08;100.00
2397;BME280;1209;48.410;9.054;2022-07-11T00:33:14;96898.03;;;13.99;100.00
2397;BME280;1209;48.410;9.054;2022-07-11T00:35:39;96897.94;;;14.07;100.00
2397;BME280;1209;48.410;9.054;2022-07-11T00:38:04;96897.41;;;13.97;100.00
2397;BME280;1209;48.410;9.054;2022-07-11T00:40:30;96895.16;;;13.56;100.00
2397;BME280;1209;48.410;9.054;2022-07-11T00:42:55;96894.94;;;13.80;100.00
2397;BME280;1209;48.410;9.054;2022-07-11T00:45:21;96893.38;;;13.71;100.00
2397;BME280;1209;48.410;9.054;2022-07-11T00:47:46;96895.75;;;13.81;100.00
2397;BME280;1209;48.410;9.054;2022-07-11T00:50:13;96895.59;;;13.97;100.00
2397;BME280;1209;48.410;9.054;2022-07-11T00:52:40;96898.75;;;13.93;100.00
2397;BME280;1209;48.410;9.054;2022-07-11T00:55:06;96889.66;;;13.66;100.00
2397;BME280;1209;48.410;9.054;2022-07-11T00:57:33;96890.47;;;13.66;100.00
2397;BME280;1209;48.410;9.054;2022-07-11T00:59:59;96884.63;;;13.79;100.00
2397;BME280;1209;48.410;9.054;2022-07-11T01:02:24;96888.69;;;13.81;100.00
2397;BME280;1209;48.410;9.054;2022-07-11T01:04:50;96886.38;;;13.64;100.00
2397;BME280;1209;48.410;9.054;2022-07-11T01:07:15;96877.56;;;13.79;100.00
2397;BME280;1209;48.410;9.054;2022-07-11T01:09:40;96884.91;;;13.84;100.00
2397;BME280;1209;48.410;9.054;2022-07-11T01:12:06;96881.38;;;13.77;100.00
2397;BME280;1209;48.410;9.054;2022-07-11T01:14:31;96877.97;;;13.68;100.00
2397;BME280;1209;48.410;9.054;2022-07-11T01:16:57;96874.44;;;13.61;100.00
2397;BME280;1209;48.410;9.054;2022-07-11T01:19:22;96878.13;;;13.52;100.00
2397;BME280;1209;48.410;9.054;2022-07-11T01:21:50;96876.03;;;13.47;100.00
2397;BME280;1209;48.410;9.054;2022-07-11T01:24:17;96875.03;;;13.48;100.00
2397;BME280;1209;48.410;9.054;2022-07-11T01:26:43;96869.13;;;13.32;100.00
2397;BME280;1209;48.410;9.054;2022-07-11T01:29:12;96871.50;;;13.41;100.00
2397;BME280;1209;48.410;9.054;2022-07-11T01:31:39;96878.94;;;13.52;100.00
2397;BME280;1209;48.410;9.054;2022-07-11T01:34:04;96874.22;;;13.48;100.00
2397;BME280;1209;48.410;9.054;2022-07-11T01:36:30;96857.50;;;13.03;100.00
2397;BME280;1209;48.410;9.054;2022-07-11T01:38:55;96870.09;;;13.08;100.00
2397;BME280;1209;48.410;9.054;2022-07-11T01:41:21;96866.03;;;13.28;100.00
2397;BME280;1209;48.410;9.054;2022-07-11T01:43:46;96867.97;;;13.34;100.00
2397;BME280;1209;48.410;9.054;2022-07-11T01:46:12;96867.16;;;13.34;100.00
2397;BME280;1209;48.410;9.054;2022-07-11T01:48:37;96868.84;;;13.27;100.00
2397;BME280;1209;48.410;9.054;2022-07-11T01:51:02;96867.06;;;13.42;100.00
2397;BME280;1209;48.410;9.054;2022-07-11T01:53:28;96862.84;;;13.55;100.00
2397;BME280;1209;48.410;9.054;2022-07-11T01:55:53;96861.75;;;13.50;100.00
2397;BME280;1209;48.410;9.054;2022-07-11T01:58:19;96860.47;;;13.46;100.00
2397;BME280;1209;48.410;9.054;2022-07-11T02:00:44;96867.06;;;13.42;100.00
2397;BME280;1209;48.410;9.054;2022-07-11T02:03:10;96857.28;;;13.36;100.00
2397;BME280;1209;48.410;9.054;2022-07-11T02:05:35;96870.47;;;13.28;100.00
2397;BME280;1209;48.410;9.054;2022-07-11T02:08:07;96856.97;;;13.08;100.00
2397;BME280;1209;48.410;9.054;2022-07-11T02:13:09;96857.22;;;12.98;100.00
2397;BME280;1209;48.410;9.054;2022-07-11T02:15:35;96858.72;;;12.92;100.00
2397;BME280;1209;48.410;9.054;2022-07-11T02:18:01;96860.06;;;12.88;100.00
2397;BME280;1209;48.410;9.054;2022-07-11T02:20:26;96859.06;;;12.89;100.00
2397;BME280;1209;48.410;9.054;2022-07-11T02:22:52;96855.22;;;13.00;100.00
2397;BME280;1209;48.410;9.054;2022-07-11T02:25:18;96849.16;;;13.00;100.00
2397;BME280;1209;48.410;9.054;2022-07-11T02:27:44;96862.50;;;12.90;100.00
2397;BME280;1209;48.410;9.054;2022-07-11T02:30:10;96850.88;;;12.92;100.00
2397;BME280;1209;48.410;9.054;2022-07-11T02:32:36;96858.38;;;12.96;100.00
2397;BME280;1209;48.410;9.054;2022-07-11T02:35:02;96855.75;;;12.96;100.00
2397;BME280;1209;48.410;9.054;2022-07-11T02:37:27;96850.88;;;12.92;100.00
2397;BME280;1209;48.410;9.054;2022-07-11T02:39:53;96851.78;;;13.00;100.00
2397;BME280;1209;48.410;9.054;2022-07-11T02:42:18;96856.78;;;13.09;100.00
2397;BME280;1209;48.410;9.054;2022-07-11T02:44:45;96850.44;;;13.04;100.00
2397;BME280;1209;48.410;9.054;2022-07-11T02:47:10;96839.50;;;13.00;100.00
2397;BME280;1209;48.410;9.054;2022-07-11T02:49:36;96853.78;;;12.98;100.00
2397;BME280;1209;48.410;9.054;2022-07-11T02:52:02;96847.44;;;12.92;100.00
2397;BME280;1209;48.410;9.054;2022-07-11T02:54:27;96850.56;;;12.87;100.00
2397;BME280;1209;48.410;9.054;2022-07-11T02:56:53;96852.50;;;12.93;100.00
2397;BME280;1209;48.410;9.054;2022-07-11T02:59:19;96854.81;;;12.88;100.00
2397;BME280;1209;48.410;9.054;2022-07-11T03:01:44;96852.72;;;12.84;100.00
2397;BME280;1209;48.410;9.054;2022-07-11T03:04:10;96850.59;;;12.56;100.00
2397;BME280;1209;48.410;9.054;2022-07-11T03:06:36;96857.84;;;12.46;100.00
2397;BME280;1209;48.410;9.054;2022-07-11T03:09:04;96859.72;;;12.60;100.00
2397;BME280;1209;48.410;9.054;2022-07-11T03:11:30;96865.53;;;12.79;100.00
2397;BME280;1209;48.410;9.054;2022-07-11T03:13:56;96855.16;;;12.85;100.00
2397;BME280;1209;48.410;9.054;2022-07-11T03:16:21;96860.28;;;12.79;100.00
2397;BME280;1209;48.410;9.054;2022-07-11T03:18:47;96858.97;;;12.75;100.00
2397;BME280;1209;48.410;9.054;2022-07-11T03:21:12;96845.56;;;12.78;100.00
2397;BME280;1209;48.410;9.054;2022-07-11T03:23:38;96855.69;;;12.81;100.00
2397;BME280;1209;48.410;9.054;2022-07-11T03:26:03;96858.84;;;12.45;100.00
2397;BME280;1209;48.410;9.054;2022-07-11T03:28:28;96854.97;;;12.64;100.00
2397;BME280;1209;48.410;9.054;2022-07-11T03:30:54;96847.56;;;12.68;100.00
2397;BME280;1209;48.410;9.054;2022-07-11T03:33:20;96849.53;;;12.66;100.00
2397;BME280;1209;48.410;9.054;2022-07-11T03:35:46;96851.13;;;12.75;100.00
2397;BME280;1209;48.410;9.054;2022-07-11T03:38:12;96849.75;;;12.56;100.00
2397;BME280;1209;48.410;9.054;2022-07-11T03:40:38;96848.41;;;12.29;100.00
2397;BME280;1209;48.410;9.054;2022-07-11T03:43:04;96847.28;;;12.32;100.00
2397;BME280;1209;48.410;9.054;2022-07-11T03:45:29;96851.53;;;12.64;100.00
2397;BME280;1209;48.410;9.054;2022-07-11T03:47:55;96851.66;;;12.70;100.00
2397;BME280;1209;48.410;9.054;2022-07-11T03:50:20;96851.69;;;12.62;100.00
2397;BME280;1209;48.410;9.054;2022-07-11T03:52:45;96851.53;;;12.64;100.00
2397;BME280;1209;48.410;9.054;2022-07-11T03:55:11;96844.88;;;12.76;100.00
2397;BME280;1209;48.410;9.054;2022-07-11T03:57:37;96850.28;;;12.82;100.00
2397;BME280;1209;48.410;9.054;2022-07-11T04:00:03;96847.03;;;12.72;100.00
2397;BME280;1209;48.410;9.054;2022-07-11T04:02:31;96842.31;;;12.68;100.00
2397;BME280;1209;48.410;9.054;2022-07-11T04:04:56;96845.41;;;12.71;100.00
2397;BME280;1209;48.410;9.054;2022-07-11T04:07:21;96837.91;;;12.68;100.00
2397;BME280;1209;48.410;9.054;2022-07-11T04:09:47;96847.16;;;12.56;100.00
2397;BME280;1209;48.410;9.054;2022-07-11T04:12:12;96847.97;;;12.56;100.00
2397;BME280;1209;48.410;9.054;2022-07-11T04:14:38;96855.34;;;12.53;100.00
2397;BME280;1209;48.410;9.054;2022-07-11T04:17:03;96846.97;;;12.57;100.00
2397;BME280;1209;48.410;9.054;2022-07-11T04:19:29;96844.31;;;12.66;100.00
2397;BME280;1209;48.410;9.054;2022-07-11T04:21:54;96846.63;;;12.60;100.00
2397;BME280;1209;48.410;9.054;2022-07-11T04:24:20;96847.06;;;12.41;100.00
2397;BME280;1209;48.410;9.054;2022-07-11T04:26:45;96846.59;;;12.29;100.00
2397;BME280;1209;48.410;9.054;2022-07-11T04:29:10;96847.59;;;12.28;100.00
2397;BME280;1209;48.410;9.054;2022-07-11T04:31:36;96855.78;;;12.34;100.00
2397;BME280;1209;48.410;9.054;2022-07-11T04:34:01;96850.53;;;12.34;100.00
2397;BME280;1209;48.410;9.054;2022-07-11T04:36:26;96856.25;;;12.37;100.00
2397;BME280;1209;48.410;9.054;2022-07-11T04:38:52;96855.59;;;12.35;100.00
2397;BME280;1209;48.410;9.054;2022-07-11T04:41:17;96849.38;;;12.36;100.00
2397;BME280;1209;48.410;9.054;2022-07-11T04:43:42;96852.81;;;12.37;100.00
2397;BME280;1209;48.410;9.054;2022-07-11T04:46:09;96852.84;;;12.59;100.00
2397;BME280;1209;48.410;9.054;2022-07-11T04:48:35;96850.25;;;12.59;100.00
2397;BME280;1209;48.410;9.054;2022-07-11T04:51:04;96848.38;;;12.68;100.00
2397;BME280;1209;48.410;9.054;2022-07-11T04:53:30;96857.28;;;12.59;100.00
2397;BME280;1209;48.410;9.054;2022-07-11T04:55:55;96848.66;;;12.50;100.00
2397;BME280;1209;48.410;9.054;2022-07-11T04:58:20;96853.38;;;12.55;100.00
2397;BME280;1209;48.410;9.054;2022-07-11T05:00:45;96848.03;;;12.71;100.00
2397;BME280;1209;48.410;9.054;2022-07-11T05:03:11;96850.66;;;12.71;100.00
2397;BME280;1209;48.410;9.054;2022-07-11T05:05:36;96850.75;;;12.86;100.00
2397;BME280;1209;48.410;9.054;2022-07-11T05:08:02;96849.81;;;12.79;100.00
2397;BME280;1209;48.410;9.054;2022-07-11T05:10:28;96857.28;;;12.90;100.00
2397;BME280;1209;48.410;9.054;2022-07-11T05:12:56;96857.72;;;13.16;100.00
2397;BME280;1209;48.410;9.054;2022-07-11T05:15:22;96868.22;;;13.25;100.00
2397;BME280;1209;48.410;9.054;2022-07-11T05:17:48;96857.03;;;13.22;100.00
2397;BME280;1209;48.410;9.054;2022-07-11T05:20:13;96848.44;;;13.37;100.00
2397;BME280;1209;48.410;9.054;2022-07-11T05:22:39;96847.19;;;13.47;100.00
2397;BME280;1209;48.410;9.054;2022-07-11T05:25:04;96859.22;;;13.57;100.00
2397;BME280;1209;48.410;9.054;2022-07-11T05:27:30;96857.78;;;13.69;100.00
2397;BME280;1209;48.410;9.054;2022-07-11T05:29:55;96863.81;;;13.77;100.00
2397;BME280;1209;48.410;9.054;2022-07-11T05:32:20;96862.00;;;13.93;100.00
2397;BME280;1209;48.410;9.054;2022-07-11T05:34:46;96869.25;;;14.05;100.00
2397;BME280;1209;48.410;9.054;2022-07-11T05:37:11;96871.22;;;14.18;100.00
2397;BME280;1209;48.410;9.054;2022-07-11T05:39:36;96868.97;;;14.30;100.00
2397;BME280;1209;48.410;9.054;2022-07-11T05:42:02;96871.44;;;14.46;100.00
2397;BME280;1209;48.410;9.054;2022-07-11T05:44:28;96876.38;;;14.56;100.00
2397;BME280;1209;48.410;9.054;2022-07-11T05:46:58;96884.97;;;14.64;100.00
2397;BME280;1209;48.410;9.054;2022-07-11T05:49:23;96874.63;;;14.77;100.00
2397;BME280;1209;48.410;9.054;2022-07-11T05:51:49;96884.84;;;14.87;100.00
2397;BME280;1209;48.410;9.054;2022-07-11T05:54:14;96873.22;;;14.96;100.00
2397;BME280;1209;48.410;9.054;2022-07-11T05:56:41;96871.81;;;15.15;100.00
2397;BME280;1209;48.410;9.054;2022-07-11T05:59:06;96874.53;;;15.28;100.00
2397;BME280;1209;48.410;9.054;2022-07-11T06:01:32;96865.56;;;15.44;100.00
2397;BME280;1209;48.410;9.054;2022-07-11T06:03:57;96870.13;;;15.57;100.00
2397;BME280;1209;48.410;9.054;2022-07-11T06:06:24;96865.97;;;15.62;100.00
2397;BME280;1209;48.410;9.054;2022-07-11T06:08:49;96860.78;;;15.76;100.00
2397;BME280;1209;48.410;9.054;2022-07-11T06:11:15;96867.97;;;15.88;100.00
2397;BME280;1209;48.410;9.054;2022-07-11T06:13:42;96862.16;;;15.99;100.00
2397;BME280;1209;48.410;9.054;2022-07-11T06:16:10;96859.09;;;16.30;100.00
2397;BME280;1209;48.410;9.054;2022-07-11T06:18:37;96858.97;;;16.52;100.00
2397;BME280;1209;48.410;9.054;2022-07-11T06:21:03;96856.09;;;16.40;100.00
2397;BME280;1209;48.410;9.054;2022-07-11T06:23:29;96851.22;;;16.37;100.00
2397;BME280;1209;48.410;9.054;2022-07-11T06:25:55;96859.53;;;16.82;100.00
2397;BME280;1209;48.410;9.054;2022-07-11T06:28:21;96861.97;;;16.83;100.00
2397;BME280;1209;48.410;9.054;2022-07-11T06:30:47;96863.47;;;17.19;100.00
2397;BME280;1209;48.410;9.054;2022-07-11T06:33:15;96864.09;;;17.34;100.00
2397;BME280;1209;48.410;9.054;2022-07-11T06:35:40;96862.66;;;17.31;100.00
2397;BME280;1209;48.410;9.054;2022-07-11T06:38:06;96862.91;;;17.56;100.00
2397;BME280;1209;48.410;9.054;2022-07-11T06:40:31;96866.53;;;17.42;100.00
2397;BME280;1209;48.410;9.054;2022-07-11T06:42:56;96872.41;;;17.44;100.00
2397;BME280;1209;48.410;9.054;2022-07-11T06:45:22;96865.13;;;17.53;100.00
2397;BME280;1209;48.410;9.054;2022-07-11T06:47:47;96865.13;;;17.59;100.00
2397;BME280;1209;48.410;9.054;2022-07-11T06:50:12;96865.75;;;17.61;100.00
2397;BME280;1209;48.410;9.054;2022-07-11T06:52:38;96870.41;;;17.59;100.00
2397;BME280;1209;48.410;9.054;2022-07-11T06:55:04;96869.38;;;17.41;100.00
2397;BME280;1209;48.410;9.054;2022-07-11T06:57:29;96869.56;;;17.33;100.00
2397;BME280;1209;48.410;9.054;2022-07-11T06:59:55;96864.53;;;17.71;100.00
2397;BME280;1209;48.410;9.054;2022-07-11T07:02:20;96869.16;;;17.42;100.00
2397;BME280;1209;48.410;9.054;2022-07-11T07:04:48;96863.50;;;17.65;100.00
2397;BME280;1209;48.410;9.054;2022-07-11T07:07:13;96869.41;;;17.80;100.00
2397;BME280;1209;48.410;9.054;2022-07-11T07:09:39;96878.97;;;17.81;100.00
2397;BME280;1209;48.410;9.054;2022-07-11T07:12:05;96877.91;;;17.96;100.00
2397;BME280;1209;48.410;9.054;2022-07-11T07:14:31;96868.50;;;18.33;100.00
2397;BME280;1209;48.410;9.054;2022-07-11T07:16:56;96880.16;;;18.76;100.00
2397;BME280;1209;48.410;9.054;2022-07-11T07:19:21;96875.25;;;18.80;100.00
2397;BME280;1209;48.410;9.054;2022-07-11T07:21:47;96877.41;;;19.03;100.00
2397;BME280;1209;48.410;9.054;2022-07-11T07:24:13;96876.69;;;19.21;100.00
2397;BME280;1209;48.410;9.054;2022-07-11T07:26:38;96879.66;;;18.99;100.00
2397;BME280;1209;48.410;9.054;2022-07-11T07:29:03;96878.69;;;19.25;100.00
2397;BME280;1209;48.410;9.054;2022-07-11T07:31:29;96874.13;;;19.07;100.00
2397;BME280;1209;48.410;9.054;2022-07-11T07:33:54;96875.09;;;19.13;100.00
2397;BME280;1209;48.410;9.054;2022-07-11T07:36:19;96868.50;;;19.22;100.00
2397;BME280;1209;48.410;9.054;2022-07-11T07:38:45;96878.31;;;19.22;100.00
2397;BME280;1209;48.410;9.054;2022-07-11T07:41:13;96879.06;;;19.29;100.00
2397;BME280;1209;48.410;9.054;2022-07-11T07:43:39;96879.13;;;19.22;100.00
2397;BME280;1209;48.410;9.054;2022-07-11T07:46:05;96876.69;;;19.21;100.00
2397;BME280;1209;48.410;9.054;2022-07-11T07:48:30;96873.78;;;19.60;100.00
2397;BME280;1209;48.410;9.054;2022-07-11T07:50:56;96880.44;;;19.69;100.00
2397;BME280;1209;48.410;9.054;2022-07-11T07:53:21;96882.25;;;19.44;100.00
2397;BME280;1209;48.410;9.054;2022-07-11T07:55:46;96870.53;;;19.83;100.00
2397;BME280;1209;48.410;9.054;2022-07-11T07:58:12;96865.63;;;19.87;100.00
2397;BME280;1209;48.410;9.054;2022-07-11T08:00:37;96864.91;;;19.98;100.00
2397;BME280;1209;48.410;9.054;2022-07-11T08:03:21;96874.28;;;20.19;100.00
2397;BME280;1209;48.410;9.054;2022-07-11T08:05:46;96861.50;;;19.91;100.00
2397;BME280;1209;48.410;9.054;2022-07-11T08:08:12;96859.25;;;20.31;100.00
2397;BME280;1209;48.410;9.054;2022-07-11T08:10:37;96859.25;;;20.67;100.00
2397;BME280;1209;48.410;9.054;2022-07-11T08:13:02;96856.56;;;20.56;100.00
2397;BME280;1209;48.410;9.054;2022-07-11T08:15:28;96856.88;;;20.23;100.00
2397;BME280;1209;48.410;9.054;2022-07-11T08:17:53;96853.84;;;20.74;100.00
2397;BME280;1209;48.410;9.054;2022-07-11T08:20:19;96852.09;;;20.68;99.20
2397;BME280;1209;48.410;9.054;2022-07-11T08:22:44;96858.03;;;21.00;98.57
2397;BME280;1209;48.410;9.054;2022-07-11T08:25:10;96862.41;;;20.94;98.97
2397;BME280;1209;48.410;9.054;2022-07-11T08:27:35;96857.84;;;21.43;96.28
2397;BME280;1209;48.410;9.054;2022-07-11T08:30:06;96848.84;;;21.67;93.31
2397;BME280;1209;48.410;9.054;2022-07-11T08:32:33;96852.91;;;21.93;91.23
2397;BME280;1209;48.410;9.054;2022-07-11T08:34:58;96854.66;;;21.99;91.35
2397;BME280;1209;48.410;9.054;2022-07-11T08:37:24;96856.38;;;21.94;93.31
2397;BME280;1209;48.410;9.054;2022-07-11T08:39:49;96849.09;;;21.89;90.74
2397;BME280;1209;48.410;9.054;2022-07-11T08:42:18;96852.00;;;21.23;94.22
2397;BME280;1209;48.410;9.054;2022-07-11T08:44:44;96851.44;;;20.72;96.51
2397;BME280;1209;48.410;9.054;2022-07-11T08:47:09;96848.59;;;20.56;99.92
2397;BME280;1209;48.410;9.054;2022-07-11T08:49:36;96838.22;;;20.84;100.00
2397;BME280;1209;48.410;9.054;2022-07-11T08:52:02;96850.69;;;21.44;93.32
2397;BME280;1209;48.410;9.054;2022-07-11T08:54:28;96846.78;;;21.81;90.00
2397;BME280;1209;48.410;9.054;2022-07-11T08:56:55;96848.06;;;22.25;88.82
2397;BME280;1209;48.410;9.054;2022-07-11T08:59:22;96847.72;;;21.87;89.50
2397;BME280;1209;48.410;9.054;2022-07-11T09:01:49;96845.03;;;21.63;91.55
2397;BME280;1209;48.410;9.054;2022-07-11T09:04:16;96838.94;;;21.86;87.09
2397;BME280;1209;48.410;9.054;2022-07-11T09:06:42;96835.13;;;21.82;91.36
2397;BME280;1209;48.410;9.054;2022-07-11T09:09:08;96843.00;;;22.64;86.35
2397;BME280;1209;48.410;9.054;2022-07-11T09:11:53;96842.53;;;22.04;81.27
2397;BME280;1209;48.410;9.054;2022-07-11T09:14:24;96844.84;;;21.77;82.76
2397;BME280;1209;48.410;9.054;2022-07-11T09:16:58;96844.47;;;22.32;81.17
2397;BME280;1209;48.410;9.054;2022-07-11T09:19:25;96841.34;;;22.86;81.83
2397;BME280;1209;48.410;9.054;2022-07-11T09:22:11;96846.75;;;22.91;79.26
2397;BME280;1209;48.410;9.054;2022-07-11T09:24:57;96838.84;;;22.56;79.44
2397;BME280;1209;48.410;9.054;2022-07-11T09:27:52;96838.34;;;22.83;77.39
2397;BME280;1209;48.410;9.054;2022-07-11T09:30:20;96839.84;;;22.67;75.66
2397;BME280;1209;48.410;9.054;2022-07-11T09:33:06;96831.94;;;23.12;76.28
2397;BME280;1209;48.410;9.054;2022-07-11T09:35:33;96832.63;;;23.36;76.88
2397;BME280;1209;48.410;9.054;2022-07-11T09:38:16;96832.50;;;23.60;77.44
2397;BME280;1209;48.410;9.054;2022-07-11T09:40:43;96839.25;;;23.34;74.79
2397;BME280;1209;48.410;9.054;2022-07-11T09:43:09;96834.47;;;24.03;71.06
2397;BME280;1209;48.410;9.054;2022-07-11T09:45:35;96829.84;;;23.76;73.43
2397;BME280;1209;48.410;9.054;2022-07-11T09:48:11;96823.81;;;23.52;71.64
2397;BME280;1209;48.410;9.054;2022-07-11T09:50:38;96828.56;;;24.17;68.75
2397;BME280;1209;48.410;9.054;2022-07-11T09:53:10;96822.34;;;23.73;76.51
2397;BME280;1209;48.410;9.054;2022-07-11T09:55:43;96826.94;;;23.78;73.87
2397;BME280;1209;48.410;9.054;2022-07-11T09:58:13;96831.88;;;24.08;71.04
2397;BME280;1209;48.410;9.054;2022-07-11T10:00:39;96823.66;;;23.93;70.75
2397;BME280;1209;48.410;9.054;2022-07-11T10:03:06;96834.72;;;24.01;72.04
2397;BME280;1209;48.410;9.054;2022-07-11T10:05:33;96839.56;;;23.66;75.45
2397;BME280;1209;48.410;9.054;2022-07-11T10:07:59;96833.78;;;24.68;67.36
2397;BME280;1209;48.410;9.054;2022-07-11T10:10:26;96835.09;;;25.14;68.03
2397;BME280;1209;48.410;9.054;2022-07-11T10:12:52;96833.81;;;24.29;67.37
2397;BME280;1209;48.410;9.054;2022-07-11T10:15:44;96841.94;;;25.05;65.55
2397;BME280;1209;48.410;9.054;2022-07-11T10:18:39;96846.00;;;24.64;65.90
2397;BME280;1209;48.410;9.054;2022-07-11T10:21:13;96847.53;;;23.82;68.45
2397;BME280;1209;48.410;9.054;2022-07-11T10:26:29;96839.97;;;24.73;68.54
2397;BME280;1209;48.410;9.054;2022-07-11T10:31:25;96837.38;;;24.35;72.91
2397;BME280;1209;48.410;9.054;2022-07-11T10:36:27;96838.72;;;24.81;65.01
2397;BME280;1209;48.410;9.054;2022-07-11T10:39:21;96840.13;;;24.23;68.72
2397;BME280;1209;48.410;9.054;2022-07-11T10:41:50;96834.19;;;24.82;67.04
2397;BME280;1209;48.410;9.054;2022-07-11T10:44:17;96848.03;;;25.00;64.43
2397;BME280;1209;48.410;9.054;2022-07-11T10:46:43;96838.25;;;24.24;66.42
2397;BME280;1209;48.410;9.054;2022-07-11T10:57:08;96829.97;;;24.42;66.40
2397;BME280;1209;48.410;9.054;2022-07-11T11:00:10;96837.09;;;24.58;67.38
2397;BME280;1209;48.410;9.054;2022-07-11T11:03:02;96833.78;;;25.49;66.25
2397;BME280;1209;48.410;9.054;2022-07-11T11:10:59;96831.53;;;26.47;59.85
2397;BME280;1209;48.410;9.054;2022-07-11T11:13:25;96836.28;;;26.34;59.66
2397;BME280;1209;48.410;9.054;2022-07-11T11:15:52;96835.41;;;25.50;63.00
2397;BME280;1209;48.410;9.054;2022-07-11T11:20:47;96831.84;;;24.63;65.44
2397;BME280;1209;48.410;9.054;2022-07-11T11:23:40;96827.13;;;25.19;63.79
2397;BME280;1209;48.410;9.054;2022-07-11T11:26:19;96835.22;;;24.15;67.95
2397;BME280;1209;48.410;9.054;2022-07-11T11:29:05;96831.25;;;24.17;67.62
2397;BME280;1209;48.410;9.054;2022-07-11T11:31:31;96831.97;;;24.30;69.19
2397;BME280;1209;48.410;9.054;2022-07-11T11:33:58;96832.69;;;24.47;68.16
2397;BME280;1209;48.410;9.054;2022-07-11T11:36:25;96831.25;;;24.01;66.74
2397;BME280;1209;48.410;9.054;2022-07-11T11:38:51;96830.69;;;23.99;66.47
2397;BME280;1209;48.410;9.054;2022-07-11T11:41:27;96821.38;;;24.84;66.11
2397;BME280;1209;48.410;9.054;2022-07-11T11:43:58;96823.78;;;25.34;67.66
2397;BME280;1209;48.410;9.054;2022-07-11T11:46:25;96832.34;;;25.36;63.27
2397;BME280;1209;48.410;9.054;2022-07-11T11:48:54;96825.91;;;24.17;70.82
2397;BME280;1209;48.410;9.054;2022-07-11T11:51:20;96830.06;;;24.96;65.98
2397;BME280;1209;48.410;9.054;2022-07-11T11:53:55;96835.00;;;24.38;68.00
2397;BME280;1209;48.410;9.054;2022-07-11T11:56:23;96824.69;;;24.47;66.98
2397;BME280;1209;48.410;9.054;2022-07-11T11:58:55;96830.25;;;23.68;69.91
2397;BME280;1209;48.410;9.054;2022-07-11T12:01:25;96821.34;;;24.35;71.73
2397;BME280;1209;48.410;9.054;2022-07-11T12:03:52;96815.06;;;25.49;67.08
2397;BME280;1209;48.410;9.054;2022-07-11T12:09:07;96809.88;;;26.58;61.77
2397;BME280;1209;48.410;9.054;2022-07-11T12:11:35;96815.81;;;26.65;60.45
2397;BME280;1209;48.410;9.054;2022-07-11T12:14:06;96818.00;;;26.89;59.86
2397;BME280;1209;48.410;9.054;2022-07-11T12:16:33;96817.56;;;26.40;60.38
2397;BME280;1209;48.410;9.054;2022-07-11T12:19:25;96821.25;;;26.28;62.15
2397;BME280;1209;48.410;9.054;2022-07-11T12:21:53;96822.16;;;25.33;62.63
2397;BME280;1209;48.410;9.054;2022-07-11T12:24:23;96808.91;;;25.48;64.73
2397;BME280;1209;48.410;9.054;2022-07-11T12:26:51;96820.06;;;26.56;60.45
2397;BME280;1209;48.410;9.054;2022-07-11T12:34:24;96808.91;;;26.95;59.10
2397;BME280;1209;48.410;9.054;2022-07-11T12:37:06;96815.72;;;27.48;56.61
2397;BME280;1209;48.410;9.054;2022-07-11T12:39:34;96811.59;;;25.80;61.15
2397;BME280;1209;48.410;9.054;2022-07-11T12:42:01;96806.59;;;25.99;62.97
2397;BME280;1209;48.410;9.054;2022-07-11T12:44:54;96806.31;;;26.38;59.35
2397;BME280;1209;48.410;9.054;2022-07-11T12:47:40;96813.44;;;26.84;57.12
2397;BME280;1209;48.410;9.054;2022-07-11T12:50:12;96804.81;;;25.67;59.55
2397;BME280;1209;48.410;9.054;2022-07-11T12:52:42;96807.28;;;26.21;59.22
2397;BME280;1209;48.410;9.054;2022-07-11T12:55:11;96804.47;;;26.48;58.25
2397;BME280;1209;48.410;9.054;2022-07-11T13:00:28;96815.50;;;26.52;58.68
2397;BME280;1209;48.410;9.054;2022-07-11T13:02:53;96802.94;;;26.67;56.95
2397;BME280;1209;48.410;9.054;2022-07-11T13:05:19;96807.41;;;27.55;58.33
2397;BME280;1209;48.410;9.054;2022-07-11T13:07:44;96803.91;;;27.54;55.23
2397;BME280;1209;48.410;9.054;2022-07-11T13:10:29;96791.53;;;27.33;55.21
2397;BME280;1209;48.410;9.054;2022-07-11T13:13:15;96795.56;;;27.20;58.22
2397;BME280;1209;48.410;9.054;2022-07-11T13:15:40;96799.59;;;27.94;54.98
2397;BME280;1209;48.410;9.054;2022-07-11T13:18:06;96796.38;;;27.56;54.54
2397;BME280;1209;48.410;9.054;2022-07-11T13:20:33;96800.41;;;27.39;54.87
2397;BME280;1209;48.410;9.054;2022-07-11T13:22:59;96795.84;;;27.24;55.63
2397;BME280;1209;48.410;9.054;2022-07-11T13:25:26;96790.34;;;28.36;53.31
2397;BME280;1209;48.410;9.054;2022-07-11T13:27:52;96787.53;;;28.66;51.35
2397;BME280;1209;48.410;9.054;2022-07-11T13:30:20;96785.84;;;28.91;52.51
2397;BME280;1209;48.410;9.054;2022-07-11T13:32:47;96784.59;;;27.73;55.48
2397;BME280;1209;48.410;9.054;2022-07-11T13:35:14;96786.44;;;27.42;56.29
2397;BME280;1209;48.410;9.054;2022-07-11T13:37:40;96796.97;;;28.64;53.05
2397;BME280;1209;48.410;9.054;2022-07-11T13:40:10;96791.22;;;28.80;51.49
2397;BME280;1209;48.410;9.054;2022-07-11T13:42:36;96789.59;;;28.79;53.84
2397;BME280;1209;48.410;9.054;2022-07-11T13:45:04;96784.78;;;28.07;53.94
2397;BME280;1209;48.410;9.054;2022-07-11T13:47:30;96786.09;;;28.19;52.87
2397;BME280;1209;48.410;9.054;2022-07-11T13:49:57;96783.25;;;27.50;55.11
2397;BME280;1209;48.410;9.054;2022-07-11T13:52:23;96785.16;;;26.46;55.93
2397;BME280;1209;48.410;9.054;2022-07-11T13:54:48;96794.94;;;26.88;56.04